Time;durP1;ratioP1;P1;durP2;ratioP2;P2;SDS_P1;SDS_P2;PMS_P1;PMS_P2;Temp;Humidity;BMP_temperature;BMP_pressure;BME280_temperature;BME280_humidity;BME280_pressure;Samples;Min_cycle;Max_cycle;Signal;HPM_P1;HPM_P2
2022/07/13 00:01:54;;;;;;;2.03;1.80;;;16.20;99.90;;;;;;5091863;28;20209;-78
2022/07/13 00:04:21;;;;;;;5.87;5.37;;;16.10;99.90;;;;;;5091399;28;20222;-78
2022/07/13 00:06:49;;;;;;;5.10;4.80;;;16.10;99.90;;;;;;5093262;28;20232;-78
2022/07/13 00:09:16;;;;;;;5.13;4.83;;;16.10;99.90;;;;;;5085884;28;20252;-78
2022/07/13 00:11:43;;;;;;;5.40;5.10;;;16.00;99.90;;;;;;5091907;28;20258;-78
2022/07/13 00:14:09;;;;;;;6.07;5.67;;;16.00;99.90;;;;;;5092650;28;20236;-78
2022/07/13 00:16:36;;;;;;;5.33;5.03;;;16.00;99.90;;;;;;5092921;28;20268;-78
2022/07/13 00:19:03;;;;;;;5.00;4.70;;;16.00;99.90;;;;;;5093123;28;20318;-78
2022/07/13 00:21:30;;;;;;;5.20;4.90;;;15.90;99.90;;;;;;5091355;28;20205;-78
2022/07/13 00:23:58;;;;;;;5.20;4.90;;;15.90;99.90;;;;;;5092443;28;20785;-78
2022/07/13 00:26:24;;;;;;;5.20;4.90;;;15.90;99.90;;;;;;5091264;28;20252;-79
2022/07/13 00:28:52;;;;;;;5.60;5.20;;;15.90;99.90;;;;;;5091415;28;20255;-78
2022/07/13 00:31:19;;;;;;;5.33;5.03;;;15.90;99.90;;;;;;5091062;28;20197;-78
2022/07/13 00:33:46;;;;;;;4.43;4.13;;;15.90;99.90;;;;;;5090581;28;20265;-78
2022/07/13 00:36:13;;;;;;;4.10;3.80;;;15.90;99.90;;;;;;5092490;28;20247;-77
2022/07/13 00:38:39;;;;;;;4.40;4.00;;;15.80;99.90;;;;;;5091532;28;20204;-78
2022/07/13 00:41:08;;;;;;;3.17;2.97;;;15.90;99.90;;;;;;5091464;28;20634;-79
2022/07/13 00:43:34;;;;;;;2.20;2.10;;;15.80;99.90;;;;;;5092227;28;20273;-78
2022/07/13 00:46:02;;;;;;;2.43;2.23;;;15.70;99.90;;;;;;5090958;28;20261;-78
2022/07/13 00:48:30;;;;;;;2.53;2.30;;;15.70;99.90;;;;;;5091132;28;20204;-78
2022/07/13 00:50:57;;;;;;;2.40;2.30;;;15.70;99.90;;;;;;5091140;28;20253;-78
2022/07/13 00:53:24;;;;;;;2.93;2.83;;;15.60;99.90;;;;;;5090590;28;20222;-78
2022/07/13 00:55:52;;;;;;;5.10;4.80;;;15.60;99.90;;;;;;5091281;28;20624;-78
2022/07/13 00:58:20;;;;;;;4.90;4.70;;;15.60;99.90;;;;;;5092281;28;20210;-79
2022/07/13 01:00:47;;;;;;;5.20;4.90;;;15.50;99.90;;;;;;5090861;28;20670;-78
2022/07/13 01:03:13;;;;;;;5.43;5.13;;;15.50;99.90;;;;;;5090639;28;20644;-78
2022/07/13 01:05:41;;;;;;;5.03;4.73;;;15.50;99.90;;;;;;5092469;28;20195;-77
2022/07/13 01:08:08;;;;;;;5.10;4.80;;;15.40;99.90;;;;;;5091004;28;20198;-78
2022/07/13 01:10:36;;;;;;;5.23;4.90;;;15.40;99.90;;;;;;5091124;28;20290;-78
2022/07/13 01:13:02;;;;;;;5.13;4.83;;;15.30;99.90;;;;;;5090346;28;20233;-78
2022/07/13 01:15:32;;;;;;;5.20;4.90;;;15.30;99.90;;;;;;5092233;28;20739;-78
2022/07/13 01:18:01;;;;;;;5.20;4.90;;;15.30;99.90;;;;;;5092136;28;20664;-78
2022/07/13 01:20:28;;;;;;;4.90;4.60;;;15.20;99.90;;;;;;5092294;28;20664;-78
2022/07/13 01:22:55;;;;;;;5.00;4.70;;;15.30;99.90;;;;;;5090572;28;20194;-78
2022/07/13 01:25:23;;;;;;;5.23;4.90;;;15.30;99.90;;;;;;5091739;28;20202;-78
2022/07/13 01:27:50;;;;;;;5.50;5.20;;;15.30;99.90;;;;;;5092302;28;20674;-78
2022/07/13 01:30:17;;;;;;;5.43;5.00;;;15.30;99.90;;;;;;5091943;28;20211;-78
2022/07/13 01:32:45;;;;;;;5.23;4.83;;;15.20;99.90;;;;;;5090631;28;20263;-78
2022/07/13 01:35:12;;;;;;;5.50;5.20;;;15.20;99.90;;;;;;5088308;28;20204;-78
2022/07/13 01:37:41;;;;;;;5.40;5.10;;;15.20;99.90;;;;;;5090581;28;20229;-78
2022/07/13 01:40:08;;;;;;;5.00;4.70;;;15.20;99.90;;;;;;5090551;28;20201;-78
2022/07/13 01:42:42;;;;;;;5.27;4.97;;;15.10;99.90;;;;;;5090472;28;20209;-78
2022/07/13 01:45:10;;;;;;;5.00;4.70;;;15.10;99.90;;;;;;5092734;28;20638;-78
2022/07/13 01:47:38;;;;;;;5.10;4.80;;;15.10;99.90;;;;;;5094471;28;20196;-78
2022/07/13 01:50:07;;;;;;;5.40;5.00;;;15.10;99.90;;;;;;5094474;28;20209;-78
2022/07/13 01:52:35;;;;;;;5.00;4.70;;;15.10;99.90;;;;;;5095384;28;20278;-77
2022/07/13 01:55:02;;;;;;;5.30;5.00;;;15.00;99.90;;;;;;5095468;28;20240;-78
2022/07/13 01:57:29;;;;;;;5.50;5.00;;;15.00;99.90;;;;;;5095646;28;20271;-79
2022/07/13 02:00:00;;;;;;;5.33;4.93;;;15.00;99.90;;;;;;5094245;28;20210;-78
2022/07/13 02:02:26;;;;;;;5.17;4.87;;;15.00;99.90;;;;;;5094388;28;20241;-78
2022/07/13 02:04:55;;;;;;;5.50;5.20;;;14.90;99.90;;;;;;5095001;28;20215;-78
2022/07/13 02:07:22;;;;;;;5.03;4.73;;;14.90;99.90;;;;;;5095090;28;20238;-79
2022/07/13 02:09:50;;;;;;;4.90;4.60;;;14.90;99.90;;;;;;5094057;28;20196;-78
2022/07/13 02:12:17;;;;;;;4.80;4.50;;;14.90;99.90;;;;;;5093722;28;20582;-78
2022/07/13 02:14:44;;;;;;;5.20;4.90;;;14.90;99.90;;;;;;5093832;28;20225;-78
2022/07/13 02:17:13;;;;;;;4.50;4.30;;;14.80;99.90;;;;;;5090312;28;20213;-78
2022/07/13 02:19:40;;;;;;;4.97;4.67;;;14.80;99.90;;;;;;5093784;28;20252;-79
2022/07/13 02:22:07;;;;;;;5.00;4.70;;;14.70;99.90;;;;;;5093685;28;20739;-78
2022/07/13 02:24:34;;;;;;;5.30;4.90;;;14.70;99.90;;;;;;5093546;28;20584;-78
2022/07/13 02:27:01;;;;;;;5.30;4.90;;;14.60;99.90;;;;;;5093727;28;20298;-78
2022/07/13 02:29:28;;;;;;;5.60;5.20;;;14.60;99.90;;;;;;5093700;28;20198;-78
2022/07/13 02:31:55;;;;;;;5.20;4.90;;;14.50;99.90;;;;;;5094830;28;20201;-78
2022/07/13 02:34:27;;;;;;;5.53;5.17;;;14.50;99.90;;;;;;5093178;28;20221;-78
2022/07/13 02:36:54;;;;;;;5.73;5.30;;;14.40;99.90;;;;;;5093353;28;20304;-78
2022/07/13 02:39:21;;;;;;;5.70;5.30;;;14.40;99.90;;;;;;5093451;28;20207;-78
2022/07/13 02:41:49;;;;;;;4.80;4.40;;;14.30;99.90;;;;;;5093410;28;20637;-79
2022/07/13 02:44:18;;;;;;;5.20;4.80;;;14.30;99.90;;;;;;5093052;28;20228;-79
2022/07/13 02:46:45;;;;;;;4.57;4.27;;;14.30;99.90;;;;;;5092820;28;20603;-79
2022/07/13 02:49:12;;;;;;;4.60;4.30;;;14.20;99.90;;;;;;5094558;28;20189;-78
2022/07/13 02:51:40;;;;;;;4.60;4.30;;;14.20;99.90;;;;;;5094840;28;20276;-80
2022/07/13 02:54:10;;;;;;;4.60;4.30;;;14.20;99.90;;;;;;5089903;28;20620;-80
2022/07/13 02:56:37;;;;;;;6.00;5.60;;;14.10;99.90;;;;;;5091249;28;20229;-80
2022/07/13 02:59:04;;;;;;;6.03;5.63;;;14.00;99.90;;;;;;5090661;28;20567;-80
2022/07/13 03:01:32;;;;;;;5.50;5.20;;;14.00;99.90;;;;;;5093558;28;20202;-80
2022/07/13 03:03:58;;;;;;;5.37;4.97;;;14.00;99.90;;;;;;5089329;28;20337;-80
2022/07/13 03:06:25;;;;;;;5.20;4.90;;;14.00;99.90;;;;;;5095229;28;20197;-80
2022/07/13 03:08:53;;;;;;;5.80;5.50;;;13.90;99.90;;;;;;5096233;28;20220;-80
2022/07/13 03:11:20;;;;;;;5.70;5.30;;;13.90;99.90;;;;;;5095699;28;21326;-80
2022/07/13 03:13:47;;;;;;;5.60;5.30;;;13.90;99.90;;;;;;5093079;28;20217;-80
2022/07/13 03:16:14;;;;;;;5.27;4.97;;;13.90;99.90;;;;;;5091258;28;20558;-78
2022/07/13 03:18:41;;;;;;;5.10;4.80;;;13.90;99.90;;;;;;5091430;28;20198;-79
2022/07/13 03:21:08;;;;;;;5.70;5.30;;;13.90;99.90;;;;;;5095482;28;20608;-79
2022/07/13 03:23:36;;;;;;;5.70;5.40;;;13.90;99.90;;;;;;5095087;28;20221;-83
2022/07/13 03:26:04;;;;;;;5.23;4.87;;;13.90;99.90;;;;;;5095085;28;20564;-78
2022/07/13 03:28:31;;;;;;;5.40;5.10;;;13.90;99.90;;;;;;5095708;28;20575;-79
2022/07/13 03:30:59;;;;;;;5.80;5.50;;;14.00;99.90;;;;;;5094275;28;20205;-77
2022/07/13 03:33:25;;;;;;;5.20;4.90;;;14.00;99.90;;;;;;5094370;28;20221;-79
2022/07/13 03:35:52;;;;;;;4.90;4.60;;;14.00;99.90;;;;;;5093754;28;20647;-78
2022/07/13 03:38:19;;;;;;;5.90;5.50;;;14.00;99.90;;;;;;5094682;28;20218;-81
2022/07/13 03:40:46;;;;;;;5.60;5.30;;;14.00;99.90;;;;;;5076938;28;20641;-78
2022/07/13 03:43:14;;;;;;;5.70;5.40;;;14.10;99.90;;;;;;5092532;28;20229;-76
2022/07/13 03:45:42;;;;;;;5.50;5.10;;;14.00;99.90;;;;;;5092914;28;20231;-79
2022/07/13 03:48:10;;;;;;;5.23;4.90;;;14.10;99.90;;;;;;5093642;28;20193;-78
2022/07/13 03:50:37;;;;;;;4.77;4.47;;;14.00;99.90;;;;;;5093508;28;20198;-79
2022/07/13 03:53:04;;;;;;;4.60;4.30;;;14.00;99.90;;;;;;5093074;28;20229;-78
2022/07/13 03:55:32;;;;;;;5.03;4.73;;;13.90;99.90;;;;;;5092737;28;20202;-78
2022/07/13 03:57:59;;;;;;;4.77;4.47;;;13.90;99.90;;;;;;5094933;28;20644;-78
2022/07/13 04:00:27;;;;;;;5.23;4.83;;;13.90;99.90;;;;;;5093367;28;20291;-78
2022/07/13 04:02:54;;;;;;;5.23;4.83;;;13.90;99.90;;;;;;5093027;28;20621;-78
2022/07/13 04:05:21;;;;;;;5.00;4.70;;;13.90;99.90;;;;;;5086873;28;20198;-78
2022/07/13 04:07:48;;;;;;;4.20;4.00;;;14.00;99.90;;;;;;5092339;28;20698;-78
2022/07/13 04:10:18;;;;;;;4.50;4.30;;;14.00;99.90;;;;;;5093032;28;20639;-78
2022/07/13 04:12:45;;;;;;;5.03;4.70;;;14.00;99.90;;;;;;5094826;28;20202;-78
2022/07/13 04:15:13;;;;;;;5.23;4.80;;;14.00;99.90;;;;;;5093166;28;20227;-79
2022/07/13 04:17:44;;;;;;;4.70;4.40;;;14.10;99.90;;;;;;5093631;28;20277;-79
2022/07/13 04:20:12;;;;;;;4.93;4.63;;;14.10;99.90;;;;;;5085546;28;20633;-78
2022/07/13 04:22:44;;;;;;;4.57;4.30;;;14.10;99.90;;;;;;5095599;28;20226;-78
2022/07/13 04:25:12;;;;;;;5.10;4.60;;;14.10;99.90;;;;;;5089650;28;20634;-78
2022/07/13 04:27:41;;;;;;;5.37;4.97;;;14.10;99.90;;;;;;5092589;28;20205;-79
2022/07/13 04:30:09;;;;;;;5.80;5.30;;;14.10;99.90;;;;;;5092575;28;20198;-80
2022/07/13 04:32:36;;;;;;;5.30;5.00;;;14.10;99.90;;;;;;5092768;28;20750;-78
2022/07/13 04:35:06;;;;;;;5.07;4.77;;;14.10;99.90;;;;;;5088780;28;20225;-79
2022/07/13 04:37:36;;;;;;;5.70;5.40;;;14.10;99.90;;;;;;5090175;28;20221;-79
2022/07/13 04:40:05;;;;;;;5.50;5.10;;;14.20;99.90;;;;;;5092335;28;20209;-78
2022/07/13 04:42:33;;;;;;;5.40;5.10;;;14.40;99.90;;;;;;5093027;28;20659;-78
2022/07/13 04:45:00;;;;;;;4.27;3.97;;;14.50;99.90;;;;;;5093035;28;20233;-80
2022/07/13 04:47:27;;;;;;;5.83;5.43;;;14.50;99.90;;;;;;5091415;28;20203;-81
2022/07/13 04:49:54;;;;;;;6.33;5.93;;;14.60;99.90;;;;;;5093974;28;20190;-80
2022/07/13 04:52:22;;;;;;;6.00;5.60;;;14.70;99.90;;;;;;5098438;28;20194;-80
2022/07/13 04:54:49;;;;;;;5.80;5.50;;;15.00;99.90;;;;;;5093351;28;20573;-81
2022/07/13 04:57:16;;;;;;;5.50;5.10;;;15.20;99.90;;;;;;5093254;28;20223;-81
2022/07/13 04:59:43;;;;;;;6.40;6.00;;;15.40;99.90;;;;;;5089745;28;20206;-81
2022/07/13 05:02:10;;;;;;;5.00;4.70;;;15.80;99.90;;;;;;5106967;28;20216;-81
2022/07/13 05:04:37;;;;;;;6.60;6.10;;;16.10;99.90;;;;;;5090552;28;20216;-81
2022/07/13 05:07:04;;;;;;;5.97;5.57;;;16.20;99.90;;;;;;5093323;28;20212;-80
2022/07/13 05:09:34;;;;;;;6.40;6.00;;;16.30;99.90;;;;;;5093619;28;20222;-78
2022/07/13 05:12:01;;;;;;;6.60;6.20;;;16.50;99.90;;;;;;5093685;28;20318;-79
2022/07/13 05:14:29;;;;;;;2.70;2.20;;;16.60;99.90;;;;;;5092961;28;20223;-78
2022/07/13 05:16:57;;;;;;;5.90;5.60;;;16.80;99.90;;;;;;5093705;28;20316;-79
2022/07/13 05:19:24;;;;;;;5.60;5.20;;;16.90;99.90;;;;;;5095381;28;20214;-79
2022/07/13 05:21:51;;;;;;;3.90;3.70;;;16.90;99.90;;;;;;5096759;28;20200;-79
2022/07/13 05:24:18;;;;;;;2.63;2.43;;;16.80;99.90;;;;;;5096216;28;20222;-80
2022/07/13 05:26:47;;;;;;;3.10;2.80;;;16.90;99.90;;;;;;5099656;28;20193;-80
2022/07/13 05:29:13;;;;;;;2.40;2.30;;;17.00;99.90;;;;;;5096939;28;20197;-79
2022/07/13 05:31:42;;;;;;;3.10;2.90;;;17.10;99.90;;;;;;5089412;28;20200;-77
2022/07/13 05:34:10;;;;;;;2.17;2.07;;;17.20;99.90;;;;;;5085688;28;20487;-76
2022/07/13 05:36:41;;;;;;;2.57;2.37;;;17.40;99.90;;;;;;5088626;28;20201;-77
2022/07/13 05:39:08;;;;;;;2.83;1.87;;;17.40;99.90;;;;;;5092576;28;20197;-78
2022/07/13 05:41:35;;;;;;;2.60;2.40;;;17.50;99.90;;;;;;5092716;28;20197;-77
2022/07/13 05:44:03;;;;;;;2.60;2.40;;;17.60;99.90;;;;;;5093654;28;20320;-78
2022/07/13 05:46:31;;;;;;;2.83;2.63;;;17.80;99.90;;;;;;5092324;28;20636;-76
2022/07/13 05:48:58;;;;;;;2.10;2.00;;;18.10;99.90;;;;;;5092392;28;20198;-77
2022/07/13 05:51:26;;;;;;;5.33;4.93;;;18.60;99.90;;;;;;5092253;28;20231;-77
2022/07/13 05:53:53;;;;;;;4.90;4.60;;;19.30;99.90;;;;;;5090869;28;20211;-78
2022/07/13 05:56:20;;;;;;;6.10;5.60;;;20.10;99.90;;;;;;5093699;28;20208;-78
2022/07/13 05:58:46;;;;;;;4.60;4.30;;;20.90;99.90;;;;;;5095521;28;20316;-79
2022/07/13 06:01:16;;;;;;;6.27;5.87;;;21.60;99.90;;;;;;5094826;28;20690;-79
2022/07/13 06:03:43;;;;;;;2.23;2.00;;;22.30;99.90;;;;;;5093869;28;20305;-76
2022/07/13 06:06:09;;;;;;;5.40;5.10;;;22.80;99.90;;;;;;5094369;28;20201;-76
2022/07/13 06:08:38;;;;;;;6.17;5.67;;;23.20;99.90;;;;;;5092490;28;20268;-75
2022/07/13 06:11:05;;;;;;;3.23;2.93;;;23.30;99.90;;;;;;5093695;28;20289;-75
2022/07/13 06:13:32;;;;;;;5.50;5.20;;;23.60;99.90;;;;;;5094165;28;20214;-75
2022/07/13 06:15:59;;;;;;;7.10;6.50;;;24.00;99.90;;;;;;5094283;28;20269;-76
2022/07/13 06:18:27;;;;;;;3.37;3.13;;;24.20;99.90;;;;;;5095829;28;20304;-77
2022/07/13 06:20:54;;;;;;;3.10;2.20;;;24.30;99.90;;;;;;5095986;28;20202;-79
2022/07/13 06:23:21;;;;;;;4.57;4.17;;;24.30;99.90;;;;;;5088912;28;20206;-78
2022/07/13 06:25:48;;;;;;;4.30;3.97;;;24.20;99.90;;;;;;5092355;28;20202;-75
2022/07/13 06:28:15;;;;;;;4.60;4.20;;;24.10;99.90;;;;;;5088527;28;20202;-75
2022/07/13 06:30:42;;;;;;;6.17;4.80;;;24.40;99.90;;;;;;5092137;28;20237;-76
2022/07/13 06:33:09;;;;;;;5.57;4.30;;;24.60;99.90;;;;;;5086461;28;20209;-75
2022/07/13 06:35:37;;;;;;;5.97;5.57;;;25.10;99.90;;;;;;5093972;28;20198;-76
2022/07/13 06:38:04;;;;;;;2.53;2.40;;;25.50;99.90;;;;;;5093744;28;20210;-77
2022/07/13 06:40:31;;;;;;;6.33;5.87;;;26.00;99.90;;;;;;5092679;28;20206;-76
2022/07/13 06:42:58;;;;;;;5.10;4.80;;;26.50;99.90;;;;;;5095752;28;20216;-78
2022/07/13 06:45:25;;;;;;;3.13;2.30;;;26.80;99.90;;;;;;5093254;28;20274;-77
2022/07/13 06:47:52;;;;;;;6.57;6.07;;;26.70;99.90;;;;;;5097359;28;20189;-78
2022/07/13 06:50:20;;;;;;;7.03;6.63;;;26.30;99.90;;;;;;5097423;28;20218;-79
2022/07/13 06:52:48;;;;;;;5.67;5.23;;;26.00;99.90;;;;;;5097412;28;20217;-79
2022/07/13 06:55:15;;;;;;;4.90;4.60;;;25.80;99.90;;;;;;5096915;28;20198;-78
2022/07/13 06:57:42;;;;;;;4.07;3.67;;;25.90;99.90;;;;;;5097950;28;20728;-78
2022/07/13 07:00:11;;;;;;;3.03;2.73;;;25.60;99.90;;;;;;5088385;28;20201;-78
2022/07/13 07:02:38;;;;;;;2.07;1.83;;;25.60;99.90;;;;;;5097054;28;20206;-78
2022/07/13 07:05:08;;;;;;;2.20;2.00;;;25.80;99.90;;;;;;5098178;28;20221;-78
2022/07/13 07:07:35;;;;;;;3.30;3.10;;;26.10;99.90;;;;;;5096823;28;20709;-79
2022/07/13 07:10:04;;;;;;;6.43;5.10;;;26.00;99.90;;;;;;5095683;28;20206;-79
2022/07/13 07:12:31;;;;;;;6.03;5.70;;;25.90;99.90;;;;;;5095453;28;20190;-78
2022/07/13 07:14:58;;;;;;;2.63;1.87;;;26.10;99.90;;;;;;5093135;28;20259;-79
2022/07/13 07:17:25;;;;;;;3.63;3.33;;;26.10;99.90;;;;;;5090022;28;20236;-80
2022/07/13 07:19:57;;;;;;;5.17;4.67;;;26.30;99.90;;;;;;5095725;28;20883;-79
2022/07/13 07:22:24;;;;;;;4.03;2.40;;;26.50;99.90;;;;;;5095765;28;20197;-77
2022/07/13 07:24:51;;;;;;;3.37;1.93;;;26.80;99.90;;;;;;5095274;28;20214;-79
2022/07/13 07:27:19;;;;;;;4.13;2.20;;;27.40;99.90;;;;;;5095420;28;20686;-78
2022/07/13 07:29:46;;;;;;;3.00;2.80;;;27.60;99.90;;;;;;5091248;28;20656;-78
2022/07/13 07:32:13;;;;;;;5.07;4.70;;;27.50;99.90;;;;;;5096018;28;20200;-79
2022/07/13 07:34:40;;;;;;;3.03;2.27;;;27.40;99.90;;;;;;5094722;28;20308;-79
2022/07/13 07:37:06;;;;;;;2.53;2.33;;;26.90;99.90;;;;;;5096858;28;20202;-78
2022/07/13 07:39:35;;;;;;;2.67;2.43;;;27.00;99.90;;;;;;5096841;28;20326;-79
2022/07/13 07:42:02;;;;;;;5.70;5.30;;;27.40;99.90;;;;;;5097613;28;20247;-79
2022/07/13 07:44:30;;;;;;;5.40;5.10;;;27.90;99.90;;;;;;5095845;28;20221;-79
2022/07/13 07:46:57;;;;;;;5.50;5.20;;;28.30;99.90;;;;;;5095701;28;20204;-80
2022/07/13 07:49:24;;;;;;;3.07;1.63;;;28.70;99.50;;;;;;5097037;28;20612;-80
2022/07/13 07:51:51;;;;;;;6.30;5.90;;;28.90;99.90;;;;;;5095224;28;20202;-79
2022/07/13 07:54:18;;;;;;;5.97;5.60;;;28.90;98.60;;;;;;5096831;28;20702;-80
2022/07/13 07:56:44;;;;;;;6.40;5.97;;;28.90;99.30;;;;;;5096945;28;20198;-79
2022/07/13 07:59:12;;;;;;;6.60;6.20;;;28.70;98.80;;;;;;5096986;28;20209;-78
2022/07/13 08:01:40;;;;;;;6.90;6.27;;;28.30;99.20;;;;;;5094767;28;20221;-79
2022/07/13 08:04:07;;;;;;;6.37;5.97;;;28.40;99.90;;;;;;5095901;28;20218;-80
2022/07/13 08:06:35;;;;;;;6.17;5.77;;;28.80;99.30;;;;;;5095884;28;20211;-79
2022/07/13 08:09:01;;;;;;;6.43;5.90;;;28.70;98.50;;;;;;5097512;28;20189;-80
2022/07/13 08:11:28;;;;;;;6.87;6.27;;;28.90;99.00;;;;;;5096346;28;20194;-79
2022/07/13 08:13:55;;;;;;;6.80;6.30;;;28.70;99.10;;;;;;5094266;28;20721;-79
2022/07/13 08:16:22;;;;;;;6.40;6.00;;;28.50;98.90;;;;;;5096908;28;20541;-80
2022/07/13 08:18:51;;;;;;;6.47;5.97;;;28.40;98.90;;;;;;5092371;28;20226;-80
2022/07/13 08:21:17;;;;;;;6.63;6.23;;;28.40;99.40;;;;;;5094937;28;20247;-79
2022/07/13 08:23:54;;;;;;;5.33;4.93;;;28.50;99.50;;;;;;5093916;28;20767;-79
2022/07/13 08:26:22;;;;;;;4.80;4.33;;;28.60;99.80;;;;;;5094383;28;20197;-80
2022/07/13 08:28:49;;;;;;;4.97;4.50;;;28.70;98.40;;;;;;5096132;28;20194;-80
2022/07/13 08:31:16;;;;;;;4.50;4.20;;;28.60;98.90;;;;;;5096840;28;20626;-80
2022/07/13 08:39:14;;;;;;;2.43;2.17;;;31.20;97.40;;;;;;5091797;28;20213;-79
2022/07/13 08:41:41;;;;;;;2.10;2.00;;;31.50;95.60;;;;;;5096672;28;20197;-80
2022/07/13 08:44:08;;;;;;;3.53;1.97;;;31.80;95.00;;;;;;5096915;28;20236;-80
2022/07/13 08:46:35;;;;;;;3.57;2.33;;;31.80;94.90;;;;;;5097540;28;20220;-79
2022/07/13 08:49:11;;;;;;;2.50;2.30;;;31.70;94.30;;;;;;5099501;28;20220;-80
2022/07/13 08:56:05;;;;;;;2.87;2.67;;;31.50;95.20;;;;;;5080155;28;20201;-79
2022/07/13 08:58:52;;;;;;;5.03;4.63;;;31.50;94.30;;;;;;5105177;28;20201;-80
2022/07/13 09:01:22;;;;;;;5.17;4.70;;;31.50;95.50;;;;;;5093676;28;20193;-80
2022/07/13 09:03:49;;;;;;;3.00;2.80;;;31.50;94.90;;;;;;5096177;28;20214;-81
2022/07/13 09:06:41;;;;;;;2.90;2.70;;;31.50;94.20;;;;;;5096307;28;20606;-80
2022/07/13 09:09:08;;;;;;;2.83;2.70;;;31.10;94.80;;;;;;5096980;28;20271;-80
2022/07/13 09:11:37;;;;;;;3.30;3.00;;;31.20;93.40;;;;;;5096573;28;20213;-80
2022/07/13 09:14:03;;;;;;;3.20;3.00;;;30.70;93.70;;;;;;5095602;28;20704;-82
2022/07/13 09:16:30;;;;;;;4.00;3.60;;;31.00;95.10;;;;;;5097823;28;20701;-80
2022/07/13 09:18:59;;;;;;;3.70;3.50;;;31.50;94.00;;;;;;5097498;28;20216;-81
2022/07/13 09:21:27;;;;;;;4.10;3.80;;;31.70;93.00;;;;;;5096818;28;20201;-80
2022/07/13 09:23:56;;;;;;;3.05;2.88;;;32.10;94.20;;;;;;5092897;28;20760;-80
2022/07/13 09:26:23;;;;;;;3.33;3.13;;;32.50;92.80;;;;;;5095369;28;20634;-80
2022/07/13 09:28:53;;;;;;;3.67;3.47;;;32.70;92.40;;;;;;5098177;28;20233;-80
2022/07/13 09:31:20;;;;;;;3.50;3.30;;;32.60;92.20;;;;;;5096945;28;20219;-80
2022/07/13 09:33:47;;;;;;;4.65;4.35;;;32.40;92.00;;;;;;5097673;28;20251;-79
2022/07/13 09:36:16;;;;;;;5.20;4.70;;;31.90;92.00;;;;;;5097147;28;20209;-80
2022/07/13 09:38:44;;;;;;;5.53;5.03;;;31.70;92.30;;;;;;5096492;28;20194;-80
2022/07/13 09:41:20;;;;;;;5.45;5.00;;;31.50;92.20;;;;;;5091531;28;20629;-78
2022/07/13 09:46:51;;;;;;;5.57;5.10;;;31.10;92.00;;;;;;5091794;28;20244;-79
2022/07/13 09:49:18;;;;;;;7.17;4.90;;;31.40;92.80;;;;;;5090011;28;20292;-80
2022/07/13 09:51:45;;;;;;;5.43;5.03;;;31.70;93.50;;;;;;5096202;28;20224;-81
2022/07/13 09:54:13;;;;;;;4.90;4.70;;;31.90;92.90;;;;;;5095097;28;20709;-80
2022/07/13 09:56:46;;;;;;;5.30;5.00;;;31.90;91.00;;;;;;5093667;28;20205;-80
2022/07/13 09:59:15;;;;;;;3.80;3.60;;;31.60;90.60;;;;;;5086282;28;20198;-79
2022/07/13 10:01:43;;;;;;;2.33;1.90;;;31.60;90.70;;;;;;5097672;28;20201;-80
2022/07/13 10:04:10;;;;;;;5.40;5.00;;;31.60;90.70;;;;;;5104226;28;20222;-80
2022/07/13 10:06:37;;;;;;;4.80;4.50;;;31.70;91.50;;;;;;5100649;28;20197;-79
2022/07/13 10:09:05;;;;;;;4.93;4.53;;;32.20;92.00;;;;;;5101842;28;20232;-79
2022/07/13 10:11:32;;;;;;;2.37;2.23;;;32.30;88.80;;;;;;5101848;28;20194;-79
2022/07/13 10:13:59;;;;;;;2.03;1.93;;;31.60;90.60;;;;;;5100974;28;20296;-80
2022/07/13 10:16:30;;;;;;;1.93;1.83;;;31.60;90.10;;;;;;5098753;28;20200;-80
2022/07/13 10:19:03;;;;;;;3.90;3.70;;;31.90;90.50;;;;;;5100047;28;20273;-79
2022/07/13 10:21:39;;;;;;;2.00;1.90;;;32.00;88.10;;;;;;5098944;28;20204;-80
2022/07/13 10:24:15;;;;;;;1.90;1.80;;;32.00;90.20;;;;;;5099303;28;20209;-80
2022/07/13 10:26:42;;;;;;;2.30;1.80;;;32.00;88.00;;;;;;5099687;28;20201;-80
2022/07/13 10:29:10;;;;;;;2.50;1.90;;;31.60;88.30;;;;;;5099705;28;20304;-81
2022/07/13 10:31:40;;;;;;;2.80;2.60;;;31.30;90.30;;;;;;5100516;28;20239;-80
2022/07/13 10:34:08;;;;;;;4.33;2.93;;;31.40;90.30;;;;;;5095259;28;20252;-80
2022/07/13 10:36:52;;;;;;;2.83;2.63;;;31.10;89.90;;;;;;5096782;28;20255;-79
2022/07/13 10:39:19;;;;;;;5.37;4.87;;;30.80;90.70;;;;;;5096652;28;20216;-79
2022/07/13 10:41:57;;;;;;;6.40;6.00;;;30.80;91.40;;;;;;5097851;28;20212;-79
2022/07/13 10:44:36;;;;;;;4.70;4.40;;;30.70;90.80;;;;;;5094426;28;20233;-80
2022/07/13 10:47:06;;;;;;;2.20;2.10;;;31.10;91.10;;;;;;5096856;28;20205;-79
2022/07/13 10:49:41;;;;;;;1.90;1.80;;;31.40;90.70;;;;;;5097323;28;20210;-80
2022/07/13 10:52:51;;;;;;;1.90;1.80;;;31.40;89.30;;;;;;5097001;28;20585;-80
2022/07/13 10:55:46;;;;;;;4.50;4.20;;;31.20;89.40;;;;;;5090539;28;20280;-80
2022/07/13 10:58:42;;;;;;;3.60;3.30;;;31.10;88.10;;;;;;5094899;28;20232;-79
2022/07/13 11:01:35;;;;;;;4.93;4.60;;;31.10;90.00;;;;;;5097884;28;20230;-79
2022/07/13 11:04:05;;;;;;;4.67;4.30;;;31.10;90.00;;;;;;5079581;28;20213;-80
2022/07/13 11:06:32;;;;;;;4.00;3.80;;;31.10;89.80;;;;;;5096623;28;20198;-79
2022/07/13 11:09:10;;;;;;;5.47;4.90;;;31.10;90.20;;;;;;5097055;28;20214;-80
2022/07/13 11:11:45;;;;;;;3.63;2.70;;;30.80;88.90;;;;;;5095565;28;20228;-80
2022/07/13 11:14:49;;;;;;;3.07;2.87;;;30.60;89.00;;;;;;5089579;28;20209;-79
2022/07/13 11:17:17;;;;;;;1.80;1.70;;;30.50;89.30;;;;;;5089266;28;20276;-78
2022/07/13 11:19:53;;;;;;;4.47;4.17;;;30.60;90.00;;;;;;5096945;28;20194;-80
2022/07/13 11:22:21;;;;;;;4.93;4.63;;;30.70;90.40;;;;;;5090487;28;20198;-80
2022/07/13 11:25:15;;;;;;;1.60;1.60;;;30.80;88.00;;;;;;5096441;28;20213;-79
2022/07/13 11:28:14;;;;;;;1.80;1.70;;;31.00;88.50;;;;;;5095512;28;20225;-80
2022/07/13 11:30:45;;;;;;;1.77;1.67;;;31.10;86.10;;;;;;5094689;28;20298;-79
2022/07/13 11:33:12;;;;;;;1.70;1.60;;;30.70;86.50;;;;;;5089622;28;20297;-79
2022/07/13 11:35:45;;;;;;;1.90;1.80;;;30.60;88.30;;;;;;5095866;28;20225;-79
2022/07/13 11:38:14;;;;;;;1.97;1.87;;;30.50;87.20;;;;;;5088010;28;20251;-79
2022/07/13 11:40:41;;;;;;;1.80;1.70;;;30.50;88.40;;;;;;5096578;28;20721;-78
2022/07/13 11:43:10;;;;;;;2.30;2.10;;;30.30;86.70;;;;;;5094050;28;20709;-79
2022/07/13 11:45:40;;;;;;;5.13;4.83;;;30.30;87.20;;;;;;5095623;28;20209;-78
2022/07/13 11:48:12;;;;;;;5.77;5.47;;;30.20;88.50;;;;;;5095640;28;20197;-78
2022/07/13 11:50:50;;;;;;;5.40;5.10;;;30.20;87.50;;;;;;5094284;28;20267;-78
2022/07/13 11:53:24;;;;;;;5.57;5.07;;;30.40;88.50;;;;;;5094458;28;20213;-78
2022/07/13 11:55:52;;;;;;;5.20;4.90;;;30.50;88.40;;;;;;5095752;28;20669;-78
2022/07/13 11:58:28;;;;;;;4.90;4.60;;;30.70;88.80;;;;;;5094732;28;20209;-79
2022/07/13 12:00:55;;;;;;;5.70;5.40;;;30.80;87.90;;;;;;5096394;28;20633;-78
2022/07/13 12:03:27;;;;;;;5.80;5.40;;;30.80;86.00;;;;;;5094061;28;20236;-79
2022/07/13 12:06:07;;;;;;;5.20;4.90;;;30.80;86.20;;;;;;5094449;28;20201;-78
2022/07/13 12:08:35;;;;;;;5.23;4.83;;;30.80;85.80;;;;;;5095464;28;20194;-78
2022/07/13 12:11:03;;;;;;;5.00;4.70;;;30.90;86.30;;;;;;5095104;28;20217;-79
2022/07/13 12:13:33;;;;;;;4.77;4.57;;;31.00;85.20;;;;;;5095296;28;20511;-79
2022/07/13 12:16:00;;;;;;;4.47;4.27;;;31.20;85.70;;;;;;5094152;28;20258;-79
2022/07/13 12:18:26;;;;;;;4.97;4.77;;;31.20;84.70;;;;;;5093070;28;20205;-80
2022/07/13 12:20:55;;;;;;;4.50;4.30;;;31.10;84.00;;;;;;5087925;28;20201;-79
2022/07/13 12:23:21;;;;;;;4.50;4.20;;;30.80;81.70;;;;;;5093647;28;20279;-79
2022/07/13 12:25:48;;;;;;;4.93;4.63;;;30.70;83.30;;;;;;5094145;28;20258;-78
2022/07/13 12:28:15;;;;;;;4.67;4.37;;;30.70;84.70;;;;;;5094349;28;20217;-79
2022/07/13 12:30:59;;;;;;;5.20;4.90;;;30.60;84.40;;;;;;5093701;28;20259;-79
2022/07/13 12:33:26;;;;;;;3.80;3.50;;;30.70;82.60;;;;;;5087813;28;20261;-80
2022/07/13 12:36:04;;;;;;;2.63;2.43;;;30.80;83.40;;;;;;5094643;28;20201;-79
2022/07/13 12:38:31;;;;;;;2.50;2.40;;;30.80;80.20;;;;;;5095109;28;20279;-79
2022/07/13 12:41:01;;;;;;;2.00;1.90;;;31.00;80.50;;;;;;5095369;28;20274;-79
2022/07/13 12:43:29;;;;;;;4.70;4.40;;;31.20;80.20;;;;;;5093459;28;20248;-79
2022/07/13 12:45:57;;;;;;;4.97;4.63;;;31.30;78.80;;;;;;5093615;28;20261;-79
2022/07/13 12:48:27;;;;;;;3.10;2.90;;;31.50;81.70;;;;;;5087821;28;20273;-79
2022/07/13 12:50:57;;;;;;;3.30;2.83;;;31.80;78.60;;;;;;5093863;28;20594;-79
2022/07/13 12:53:26;;;;;;;4.20;3.97;;;32.00;77.70;;;;;;5093037;28;20702;-78
2022/07/13 12:55:54;;;;;;;3.73;3.53;;;31.80;75.80;;;;;;5095022;28;20193;-79
2022/07/13 12:58:36;;;;;;;4.00;3.80;;;32.00;77.40;;;;;;5093844;28;20633;-79
2022/07/13 13:01:03;;;;;;;3.77;3.57;;;32.30;77.20;;;;;;5095779;28;20197;-80
2022/07/13 13:03:29;;;;;;;4.23;2.80;;;32.50;78.90;;;;;;5094847;28;20678;-79
2022/07/13 13:05:56;;;;;;;3.70;3.47;;;32.70;76.70;;;;;;5094340;28;20197;-79
2022/07/13 13:08:24;;;;;;;4.30;4.00;;;32.60;75.90;;;;;;5093874;28;20220;-80
2022/07/13 13:10:51;;;;;;;4.47;4.27;;;32.50;73.90;;;;;;5093208;28;20767;-79